Time;durP1;ratioP1;P1;durP2;ratioP2;P2;SDS_P1;SDS_P2;PMS_P1;PMS_P2;Temp;Humidity;BMP_temperature;BMP_pressure;BME280_temperature;BME280_humidity;BME280_pressure;Samples;Min_cycle;Max_cycle;Signal;HPM_P1;HPM_P2
2022/07/05 00:01:42;;;;;;;8.80;4.40;;;15.20;99.90;;;;;;5092702;28;20027;-57
2022/07/05 00:04:08;;;;;;;8.98;4.57;;;15.20;99.90;;;;;;5092665;28;20034;-57
2022/07/05 00:06:33;;;;;;;7.90;4.22;;;15.00;99.90;;;;;;5092592;28;20055;-58
2022/07/05 00:08:59;;;;;;;7.53;3.85;;;15.00;99.90;;;;;;5091625;28;20039;-56
2022/07/05 00:11:25;;;;;;;12.35;4.60;;;15.10;99.90;;;;;;5092592;28;20020;-57
2022/07/05 00:13:50;;;;;;;9.88;4.03;;;15.00;99.90;;;;;;5092178;28;20488;-58
2022/07/05 00:16:16;;;;;;;6.40;4.00;;;15.00;99.90;;;;;;5092248;28;20476;-57
2022/07/05 00:18:42;;;;;;;6.95;4.80;;;14.90;99.90;;;;;;5093148;28;20063;-57
2022/07/05 00:21:07;;;;;;;8.55;4.25;;;14.90;99.90;;;;;;5092347;28;20513;-57
2022/07/05 00:23:33;;;;;;;7.00;3.75;;;14.90;99.90;;;;;;5092023;28;20032;-58
2022/07/05 00:25:59;;;;;;;8.48;3.85;;;14.80;99.90;;;;;;5092131;28;20032;-57
2022/07/05 00:28:25;;;;;;;6.50;3.42;;;14.80;99.90;;;;;;5092615;28;20444;-57
2022/07/05 00:30:50;;;;;;;7.10;3.60;;;14.70;99.90;;;;;;5091940;28;20495;-57
2022/07/05 00:33:16;;;;;;;9.38;3.80;;;14.70;99.90;;;;;;5091825;28;20023;-57
2022/07/05 00:35:41;;;;;;;5.38;3.88;;;14.60;99.90;;;;;;5090529;28;20032;-57
2022/07/05 00:38:07;;;;;;;6.00;3.67;;;14.50;99.90;;;;;;5091254;28;20024;-57
2022/07/05 00:40:33;;;;;;;5.57;3.83;;;14.40;99.90;;;;;;5091734;28;20036;-57
2022/07/05 00:42:58;;;;;;;5.25;3.70;;;14.50;99.90;;;;;;5091652;28;20477;-57
2022/07/05 00:45:24;;;;;;;9.15;3.47;;;14.40;99.90;;;;;;5091781;28;20038;-57
2022/07/05 00:47:50;;;;;;;5.07;3.28;;;14.40;99.90;;;;;;5091763;28;20042;-57
2022/07/05 00:50:15;;;;;;;6.10;4.38;;;14.30;99.90;;;;;;5091584;28;20024;-57
2022/07/05 00:52:41;;;;;;;11.43;3.85;;;14.20;99.90;;;;;;5091509;28;20052;-57
2022/07/05 00:55:07;;;;;;;5.82;3.85;;;14.30;99.90;;;;;;5091854;28;20103;-57
2022/07/05 00:57:34;;;;;;;7.25;4.40;;;14.30;99.90;;;;;;5091734;28;20032;-57
2022/07/05 01:00:00;;;;;;;7.65;4.07;;;14.40;99.90;;;;;;5091688;28;20024;-57
2022/07/05 01:02:25;;;;;;;8.32;4.00;;;14.40;99.90;;;;;;5091620;28;20434;-57
2022/07/05 01:04:51;;;;;;;6.30;4.22;;;14.40;99.90;;;;;;5091601;28;20035;-57
2022/07/05 01:07:20;;;;;;;7.50;4.20;;;14.30;99.90;;;;;;5091739;28;20085;-56
2022/07/05 01:09:46;;;;;;;7.38;4.28;;;14.30;99.90;;;;;;5091616;28;20115;-56
2022/07/05 01:12:11;;;;;;;5.65;3.80;;;14.50;99.90;;;;;;5091300;28;20591;-57
2022/07/05 01:14:37;;;;;;;5.70;3.90;;;14.60;99.90;;;;;;5091762;28;20026;-56
2022/07/05 01:17:03;;;;;;;4.53;3.63;;;14.60;99.90;;;;;;5091254;28;20025;-57
2022/07/05 01:19:29;;;;;;;10.18;4.25;;;14.70;99.90;;;;;;5092033;28;20028;-57
2022/07/05 01:21:54;;;;;;;6.75;4.70;;;14.60;99.90;;;;;;5091178;28;20405;-58
2022/07/05 01:24:21;;;;;;;7.85;4.32;;;14.30;99.90;;;;;;5091539;28;20040;-56
2022/07/05 01:26:48;;;;;;;8.57;4.70;;;14.00;99.90;;;;;;5091525;28;20032;-57
2022/07/05 01:29:15;;;;;;;10.98;4.97;;;13.90;99.90;;;;;;5091386;28;20507;-57
2022/07/05 01:31:41;;;;;;;11.20;5.30;;;14.00;99.90;;;;;;5091137;28;20039;-57
2022/07/05 01:34:07;;;;;;;6.60;5.00;;;14.00;99.90;;;;;;5091645;28;20024;-56
2022/07/05 01:36:35;;;;;;;11.38;5.07;;;14.00;99.90;;;;;;5091139;28;20039;-57
2022/07/05 01:39:02;;;;;;;8.85;5.10;;;13.90;99.90;;;;;;5091559;28;20430;-56
2022/07/05 01:41:29;;;;;;;7.03;5.00;;;13.90;99.90;;;;;;5091141;28;20035;-57
2022/07/05 01:43:55;;;;;;;9.48;4.68;;;13.90;99.90;;;;;;5091270;28;20055;-57
2022/07/05 01:46:23;;;;;;;9.70;5.53;;;13.90;99.90;;;;;;5091304;28;20071;-57
2022/07/05 01:48:55;;;;;;;7.32;4.70;;;14.00;99.90;;;;;;5093200;28;20420;-56
2022/07/05 01:51:26;;;;;;;7.70;5.30;;;14.10;99.90;;;;;;5095000;28;20515;-57
2022/07/05 01:53:53;;;;;;;7.75;5.05;;;14.00;99.90;;;;;;5095604;28;20085;-57
2022/07/05 01:56:19;;;;;;;9.10;5.63;;;14.00;99.90;;;;;;5095225;28;20038;-56
2022/07/05 01:58:45;;;;;;;10.10;5.63;;;13.90;99.90;;;;;;5095193;28;20020;-57
2022/07/05 02:01:12;;;;;;;6.88;5.32;;;14.10;99.90;;;;;;5095061;28;20085;-57
2022/07/05 02:03:39;;;;;;;9.50;5.03;;;14.20;99.90;;;;;;5094699;28;20085;-57
2022/07/05 02:06:06;;;;;;;8.70;5.22;;;14.20;99.90;;;;;;5094851;28;20067;-56
2022/07/05 02:08:31;;;;;;;8.73;4.78;;;14.20;99.90;;;;;;5095765;28;20028;-59
2022/07/05 02:10:57;;;;;;;10.18;5.25;;;14.20;99.90;;;;;;5094914;28;20472;-57
2022/07/05 02:13:23;;;;;;;6.22;4.65;;;13.80;99.90;;;;;;5095534;28;20462;-57
2022/07/05 02:15:49;;;;;;;9.23;5.40;;;13.70;99.90;;;;;;5094645;28;20028;-56
2022/07/05 02:18:14;;;;;;;11.02;6.10;;;13.70;99.90;;;;;;5094922;28;20020;-58
2022/07/05 02:20:40;;;;;;;10.18;5.85;;;13.70;99.90;;;;;;5094494;28;20100;-56
2022/07/05 02:23:07;;;;;;;8.38;5.50;;;13.80;99.90;;;;;;5094800;28;20179;-56
2022/07/05 02:25:33;;;;;;;10.20;5.03;;;13.70;99.90;;;;;;5094857;28;20058;-56
2022/07/05 02:27:59;;;;;;;10.57;5.00;;;13.60;99.90;;;;;;5093120;28;20080;-57
2022/07/05 02:30:25;;;;;;;8.65;4.85;;;13.50;99.90;;;;;;5094437;28;20047;-57
2022/07/05 02:32:51;;;;;;;9.90;5.30;;;13.50;99.90;;;;;;5094113;28;20024;-57
2022/07/05 02:35:17;;;;;;;12.77;5.35;;;13.40;99.90;;;;;;5094511;28;20017;-57
2022/07/05 02:37:42;;;;;;;8.48;5.50;;;13.30;99.90;;;;;;5094530;28;20399;-57
2022/07/05 02:40:10;;;;;;;7.40;4.72;;;13.20;99.90;;;;;;5094254;28;20115;-56
2022/07/05 02:42:39;;;;;;;7.13;5.28;;;13.20;99.90;;;;;;5094502;28;20065;-56
2022/07/05 02:45:06;;;;;;;7.32;4.93;;;13.20;99.90;;;;;;5094734;28;20425;-57
2022/07/05 02:47:34;;;;;;;8.63;5.50;;;13.20;99.90;;;;;;5094299;28;20081;-57
2022/07/05 02:50:09;;;;;;;9.23;5.35;;;13.20;99.90;;;;;;5094597;28;20024;-58
2022/07/05 02:52:35;;;;;;;11.23;5.38;;;13.10;99.90;;;;;;5093963;28;20500;-56
2022/07/05 02:55:02;;;;;;;7.70;5.10;;;13.10;99.90;;;;;;5093834;28;20028;-57
2022/07/05 02:57:28;;;;;;;7.53;4.95;;;13.20;99.90;;;;;;5094109;28;20107;-57
2022/07/05 02:59:55;;;;;;;10.98;5.20;;;13.10;99.90;;;;;;5092906;28;20111;-56
2022/07/05 03:02:21;;;;;;;9.00;4.50;;;13.10;99.90;;;;;;5093996;28;20077;-57
2022/07/05 03:04:47;;;;;;;12.40;4.78;;;12.90;99.90;;;;;;5093519;28;20115;-56
2022/07/05 03:07:13;;;;;;;7.28;4.93;;;12.80;99.90;;;;;;5093621;28;20284;-57
2022/07/05 03:09:38;;;;;;;7.75;5.35;;;12.70;99.90;;;;;;5093648;28;20127;-57
2022/07/05 03:12:05;;;;;;;5.70;5.20;;;12.60;99.90;;;;;;5093589;28;20024;-57
2022/07/05 03:14:30;;;;;;;7.50;5.90;;;12.60;99.90;;;;;;5091941;28;20066;-57
2022/07/05 03:16:56;;;;;;;10.02;6.10;;;12.70;99.90;;;;;;5093767;28;20048;-57
2022/07/05 03:19:22;;;;;;;8.25;5.68;;;12.60;99.90;;;;;;5094139;28;20032;-57
2022/07/05 03:21:48;;;;;;;18.33;5.97;;;12.70;99.90;;;;;;5093280;28;20073;-57
2022/07/05 03:24:13;;;;;;;8.55;5.00;;;12.60;99.90;;;;;;5092123;28;20122;-57
2022/07/05 03:26:39;;;;;;;17.83;6.00;;;12.60;99.90;;;;;;5093482;28;20044;-57
2022/07/05 03:29:05;;;;;;;11.27;5.40;;;12.60;99.90;;;;;;5093242;28;20039;-57
2022/07/05 03:31:30;;;;;;;8.25;5.63;;;12.60;99.90;;;;;;5093437;28;20050;-57
2022/07/05 03:33:56;;;;;;;10.85;5.50;;;12.60;99.90;;;;;;5093484;28;20472;-56
2022/07/05 03:36:22;;;;;;;14.65;5.82;;;12.60;99.90;;;;;;5093345;28;20447;-57
2022/07/05 03:38:48;;;;;;;13.30;5.90;;;12.50;99.90;;;;;;5093327;28;20016;-57
2022/07/05 03:41:14;;;;;;;13.32;5.85;;;12.50;99.90;;;;;;5092691;28;20036;-57
2022/07/05 03:43:39;;;;;;;18.80;5.72;;;12.50;99.90;;;;;;5092859;28;20122;-57
2022/07/05 03:46:05;;;;;;;15.73;6.43;;;12.40;99.90;;;;;;5092455;28;20047;-57
2022/07/05 03:48:31;;;;;;;8.70;6.20;;;12.40;99.90;;;;;;5092990;28;20027;-57
2022/07/05 03:50:56;;;;;;;11.57;6.63;;;12.60;99.90;;;;;;5092481;28;20032;-57
2022/07/05 03:53:22;;;;;;;8.95;6.28;;;12.50;99.90;;;;;;5092437;28;20052;-58
2022/07/05 03:55:47;;;;;;;13.40;6.10;;;12.60;99.90;;;;;;5092888;28;20031;-57
2022/07/05 03:58:13;;;;;;;9.40;6.28;;;12.60;99.90;;;;;;5093100;28;20040;-57
2022/07/05 04:00:39;;;;;;;10.05;6.50;;;12.50;99.90;;;;;;5092837;28;20024;-55
2022/07/05 04:03:04;;;;;;;10.05;6.10;;;12.50;99.90;;;;;;5092700;28;20035;-57
2022/07/05 04:05:30;;;;;;;9.95;6.07;;;12.50;99.90;;;;;;5092394;28;20489;-56
2022/07/05 04:07:56;;;;;;;12.07;5.50;;;12.60;99.90;;;;;;5093059;28;20028;-56
2022/07/05 04:10:22;;;;;;;10.32;5.70;;;12.60;99.90;;;;;;5092393;28;20517;-56
2022/07/05 04:12:48;;;;;;;7.68;5.82;;;12.50;99.90;;;;;;5092194;28;20047;-56
2022/07/05 04:15:14;;;;;;;12.50;5.78;;;12.50;99.90;;;;;;5092420;28;20477;-56
2022/07/05 04:17:54;;;;;;;10.75;6.30;;;12.60;99.90;;;;;;5092637;28;20539;-57
2022/07/05 04:20:21;;;;;;;9.77;5.90;;;12.70;99.90;;;;;;5092298;28;20032;-57
2022/07/05 04:22:48;;;;;;;10.05;6.13;;;12.70;99.90;;;;;;5092545;28;20055;-56
2022/07/05 04:25:17;;;;;;;10.90;6.15;;;12.70;99.90;;;;;;5092539;28;20033;-56
2022/07/05 04:27:43;;;;;;;13.45;5.68;;;12.60;99.90;;;;;;5092628;28;20485;-56
2022/07/05 04:30:09;;;;;;;8.32;5.68;;;12.80;99.90;;;;;;5092349;28;20528;-57
2022/07/05 04:32:35;;;;;;;11.77;6.10;;;12.90;99.90;;;;;;5092193;28;20056;-57
2022/07/05 04:35:01;;;;;;;11.80;5.60;;;12.90;99.90;;;;;;5092354;28;20044;-56
2022/07/05 04:37:27;;;;;;;7.18;6.00;;;12.90;99.90;;;;;;5092133;28;20024;-56
2022/07/05 04:39:53;;;;;;;12.52;5.70;;;12.90;99.90;;;;;;5092407;28;20081;-57
2022/07/05 04:42:19;;;;;;;14.52;6.60;;;12.90;99.90;;;;;;5092073;28;20066;-57
2022/07/05 04:44:44;;;;;;;15.38;6.28;;;12.90;99.90;;;;;;5092217;28;20040;-57
2022/07/05 04:47:10;;;;;;;13.18;6.05;;;13.10;99.90;;;;;;5091759;28;20095;-58
2022/07/05 04:49:36;;;;;;;9.10;5.32;;;13.10;99.90;;;;;;5092016;28;20043;-56
2022/07/05 04:52:01;;;;;;;7.68;5.45;;;13.10;99.90;;;;;;5091677;28;20044;-57
2022/07/05 04:54:27;;;;;;;9.02;5.88;;;12.90;99.90;;;;;;5091875;28;20105;-56
2022/07/05 04:56:52;;;;;;;10.73;6.15;;;13.00;99.90;;;;;;5091581;28;20146;-56
2022/07/05 04:59:18;;;;;;;9.95;6.07;;;13.00;99.90;;;;;;5091913;28;20032;-56
2022/07/05 05:01:44;;;;;;;7.13;6.15;;;13.00;99.90;;;;;;5091709;28;20036;-56
2022/07/05 05:04:09;;;;;;;9.55;6.25;;;13.10;99.90;;;;;;5091404;28;20392;-56
2022/07/05 05:06:36;;;;;;;12.73;6.50;;;13.10;99.90;;;;;;5091579;28;20028;-56
2022/07/05 05:09:01;;;;;;;6.95;6.15;;;13.20;99.90;;;;;;5091507;28;20028;-56
2022/07/05 05:11:27;;;;;;;14.15;6.57;;;13.20;99.90;;;;;;5091710;28;20541;-56
2022/07/05 05:13:53;;;;;;;15.13;6.18;;;13.30;99.90;;;;;;5091281;28;20048;-56
2022/07/05 05:16:19;;;;;;;8.50;6.10;;;13.30;99.90;;;;;;5091924;28;20032;-57
2022/07/05 05:18:44;;;;;;;10.18;6.10;;;13.50;99.90;;;;;;5092067;28;20020;-57
2022/07/05 05:21:10;;;;;;;9.60;5.43;;;13.50;99.90;;;;;;5091416;28;20135;-57
2022/07/05 05:23:36;;;;;;;15.00;5.55;;;13.70;99.90;;;;;;5091479;28;20030;-57
2022/07/05 05:26:01;;;;;;;10.13;5.72;;;13.90;99.90;;;;;;5091769;28;20032;-57
2022/07/05 05:28:27;;;;;;;13.13;5.85;;;14.00;99.90;;;;;;5092467;28;20028;-57
2022/07/05 05:30:53;;;;;;;8.85;5.13;;;14.20;99.90;;;;;;5091334;28;20488;-57
2022/07/05 05:33:18;;;;;;;11.27;5.50;;;14.30;99.90;;;;;;5091418;28;20016;-57
2022/07/05 05:35:44;;;;;;;12.07;4.93;;;14.40;99.90;;;;;;5091088;28;20025;-58
2022/07/05 05:38:10;;;;;;;10.15;5.38;;;14.60;99.90;;;;;;5091574;28;20042;-58
2022/07/05 05:40:37;;;;;;;9.30;4.63;;;14.70;99.90;;;;;;5091169;28;20058;-57
2022/07/05 05:43:03;;;;;;;12.63;5.20;;;14.80;99.90;;;;;;5091804;28;20035;-57
2022/07/05 05:45:30;;;;;;;8.85;5.15;;;15.00;99.90;;;;;;5091323;28;20032;-57
2022/07/05 05:47:57;;;;;;;13.82;5.38;;;15.10;99.90;;;;;;5091684;28;20107;-57
2022/07/05 05:50:26;;;;;;;11.23;4.88;;;15.10;99.90;;;;;;5091349;28;20388;-57
2022/07/05 05:52:53;;;;;;;14.93;5.00;;;15.20;99.90;;;;;;5090920;28;20040;-58
2022/07/05 05:55:19;;;;;;;11.68;5.22;;;15.30;99.90;;;;;;5091777;28;20099;-58
2022/07/05 05:57:45;;;;;;;15.73;5.50;;;15.50;99.90;;;;;;5091249;28;20016;-58
2022/07/05 06:00:12;;;;;;;12.60;4.95;;;15.60;99.90;;;;;;5091028;28;20100;-57
2022/07/05 06:02:38;;;;;;;18.92;5.28;;;15.70;99.90;;;;;;5091300;28;20074;-57
2022/07/05 06:05:04;;;;;;;18.30;5.63;;;15.90;99.90;;;;;;5091375;28;20036;-57
2022/07/05 06:07:30;;;;;;;10.70;4.88;;;16.10;99.90;;;;;;5091247;28;20028;-57
2022/07/05 06:09:55;;;;;;;15.15;5.30;;;16.20;99.90;;;;;;5090892;28;20032;-57
2022/07/05 06:12:21;;;;;;;11.43;5.38;;;16.30;99.90;;;;;;5090828;28;20055;-57
2022/07/05 06:14:47;;;;;;;17.30;5.47;;;16.30;99.90;;;;;;5091293;28;20048;-58
2022/07/05 06:17:12;;;;;;;17.98;5.53;;;16.40;99.90;;;;;;5090839;28;20016;-57
2022/07/05 06:19:38;;;;;;;14.02;5.10;;;16.40;99.90;;;;;;5091009;28;20025;-57
2022/07/05 06:22:04;;;;;;;11.15;5.22;;;16.50;99.90;;;;;;5089526;28;20039;-57
2022/07/05 06:24:29;;;;;;;17.15;5.82;;;16.50;99.90;;;;;;5090862;28;20099;-58
2022/07/05 06:26:55;;;;;;;16.80;5.75;;;16.60;99.90;;;;;;5069077;28;20289;-59
2022/07/05 06:29:20;;;;;;;13.05;5.10;;;16.80;99.90;;;;;;5067299;28;20416;-57
2022/07/05 06:31:46;;;;;;;14.93;5.45;;;17.00;99.90;;;;;;5064897;28;20900;-57
2022/07/05 06:34:12;;;;;;;15.40;5.82;;;17.10;99.90;;;;;;5058997;28;20036;-57
2022/07/05 06:36:37;;;;;;;29.60;6.45;;;17.30;99.90;;;;;;5067572;28;20052;-59
2022/07/05 06:39:03;;;;;;;16.95;5.55;;;17.30;99.90;;;;;;5072233;28;20747;-59
2022/07/05 06:41:28;;;;;;;12.07;5.38;;;17.40;99.90;;;;;;5071431;28;20025;-57
2022/07/05 06:43:54;;;;;;;15.13;4.78;;;17.40;99.90;;;;;;5069465;28;20520;-58
2022/07/05 06:46:19;;;;;;;11.45;4.50;;;18.10;99.90;;;;;;5067744;28;20028;-58
2022/07/05 06:48:45;;;;;;;9.95;4.32;;;18.90;99.90;;;;;;5064442;28;20548;-57
2022/07/05 06:51:11;;;;;;;12.80;4.20;;;19.60;99.90;;;;;;5076641;28;20111;-57
2022/07/05 06:53:36;;;;;;;8.18;3.80;;;20.10;99.90;;;;;;5073486;28;20052;-57
2022/07/05 06:56:02;;;;;;;7.22;3.58;;;20.90;99.90;;;;;;5066826;28;20070;-57
2022/07/05 06:58:27;;;;;;;8.27;3.50;;;21.40;99.90;;;;;;5064746;28;20034;-57
2022/07/05 07:00:53;;;;;;;12.50;3.90;;;21.80;99.90;;;;;;5069727;28;20032;-57
2022/07/05 07:03:19;;;;;;;8.90;3.72;;;22.00;99.90;;;;;;5069752;28;20386;-57
2022/07/05 07:05:44;;;;;;;12.93;3.95;;;21.20;99.90;;;;;;5062895;28;20021;-58
2022/07/05 07:10:54;;;;;;;12.32;3.65;;;20.60;99.90;;;;;;5065787;28;20201;-57
2022/07/05 07:13:20;;;;;;;9.23;3.70;;;20.50;99.90;;;;;;5068811;28;20119;-57
2022/07/05 07:15:47;;;;;;;10.30;3.50;;;20.40;99.90;;;;;;5061089;28;20318;-57
2022/07/05 07:18:14;;;;;;;11.32;3.50;;;21.10;99.90;;;;;;5066685;28;20545;-57
2022/07/05 07:20:40;;;;;;;9.63;3.85;;;22.20;99.90;;;;;;5069508;28;20096;-57
2022/07/05 07:23:05;;;;;;;8.82;3.50;;;22.60;99.90;;;;;;5067324;28;20158;-59
2022/07/05 07:25:31;;;;;;;9.00;3.55;;;22.60;99.90;;;;;;5067490;28;20025;-57
2022/07/05 07:27:57;;;;;;;8.43;3.65;;;22.00;99.90;;;;;;5067498;28;20531;-57
2022/07/05 07:30:25;;;;;;;11.73;3.53;;;22.10;99.90;;;;;;5060728;28;20037;-57
2022/07/05 07:32:51;;;;;;;7.78;3.50;;;22.50;99.90;;;;;;5067046;28;20050;-59
2022/07/05 07:35:17;;;;;;;7.10;3.38;;;22.70;99.90;;;;;;5066197;28;20089;-57
2022/07/05 07:37:43;;;;;;;9.27;3.65;;;22.20;99.90;;;;;;5068241;28;20024;-57
2022/07/05 07:40:09;;;;;;;7.93;3.20;;;22.20;99.90;;;;;;5071415;28;20033;-57
2022/07/05 07:42:35;;;;;;;12.48;3.47;;;21.60;99.90;;;;;;5063115;28;20424;-57
2022/07/05 07:45:04;;;;;;;5.97;2.40;;;21.80;99.90;;;;;;5071413;28;20390;-57
2022/07/05 07:47:38;;;;;;;6.93;2.70;;;22.90;99.90;;;;;;5065639;28;20103;-57
2022/07/05 07:50:05;;;;;;;10.48;2.88;;;23.40;99.90;;;;;;5077675;28;20035;-57
2022/07/05 07:52:33;;;;;;;7.82;2.45;;;23.20;99.90;;;;;;5065872;28;20159;-57
2022/07/05 07:54:58;;;;;;;6.30;2.30;;;23.00;99.90;;;;;;5067851;28;20025;-57
2022/07/05 07:57:24;;;;;;;6.55;2.35;;;23.80;99.90;;;;;;5070811;28;20032;-59
2022/07/05 07:59:50;;;;;;;7.97;3.05;;;24.30;99.90;;;;;;5064636;28;20021;-57
2022/07/05 08:02:17;;;;;;;8.88;2.97;;;24.50;99.90;;;;;;5062449;28;20043;-59
2022/07/05 08:04:42;;;;;;;12.38;2.63;;;25.00;99.90;;;;;;5065351;28;20500;-59
2022/07/05 08:07:08;;;;;;;9.45;2.65;;;25.30;99.90;;;;;;5069131;28;20108;-59
2022/07/05 08:09:34;;;;;;;7.47;2.55;;;25.20;99.90;;;;;;5068402;28;20028;-57
2022/07/05 08:12:00;;;;;;;6.47;2.30;;;25.30;99.90;;;;;;5070100;28;20025;-57
2022/07/05 08:14:26;;;;;;;10.23;3.20;;;25.00;99.90;;;;;;5066886;28;20074;-59
2022/07/05 08:16:51;;;;;;;7.45;2.78;;;25.10;99.90;;;;;;5066816;28;20651;-59
2022/07/05 08:22:03;;;;;;;10.75;2.90;;;25.30;99.90;;;;;;5068748;28;20039;-59
2022/07/05 08:24:29;;;;;;;12.25;3.50;;;25.60;99.90;;;;;;5060827;28;20039;-59
2022/07/05 08:26:55;;;;;;;6.40;2.45;;;26.00;99.90;;;;;;5068888;28;20033;-59
2022/07/05 08:29:20;;;;;;;8.68;2.72;;;26.30;99.90;;;;;;5068220;28;20032;-56
2022/07/05 08:31:49;;;;;;;9.88;3.03;;;26.20;99.90;;;;;;5063843;28;20032;-56
2022/07/05 08:34:15;;;;;;;7.28;2.70;;;25.60;99.90;;;;;;5062608;28;20036;-56
2022/07/05 08:36:41;;;;;;;8.00;3.25;;;25.30;99.90;;;;;;5068669;28;20028;-56
2022/07/05 08:39:08;;;;;;;6.90;2.50;;;25.60;99.90;;;;;;5065962;28;20469;-56
2022/07/05 08:41:40;;;;;;;6.80;2.38;;;25.80;99.90;;;;;;5064894;28;20033;-56
2022/07/05 08:44:06;;;;;;;7.60;2.72;;;26.80;99.90;;;;;;5064073;28;20099;-56
2022/07/05 08:46:33;;;;;;;5.50;2.10;;;26.70;99.90;;;;;;5067124;28;20090;-56
2022/07/05 08:49:03;;;;;;;9.35;2.70;;;27.00;99.20;;;;;;5065483;28;20361;-56
2022/07/05 08:51:30;;;;;;;5.70;2.45;;;27.00;98.90;;;;;;5063075;28;20414;-57
2022/07/05 08:53:56;;;;;;;8.73;2.42;;;26.60;99.80;;;;;;5064312;28;20078;-56
2022/07/05 08:56:22;;;;;;;8.30;2.42;;;27.20;99.90;;;;;;5058789;28;20404;-56
2022/07/05 08:58:49;;;;;;;5.15;2.42;;;27.00;98.80;;;;;;5064145;28;20025;-56
2022/07/05 09:01:15;;;;;;;8.05;2.33;;;26.40;99.50;;;;;;5069587;28;20090;-56
2022/07/05 09:03:47;;;;;;;6.18;1.95;;;25.30;99.90;;;;;;5064213;28;20078;-56
2022/07/05 09:06:20;;;;;;;8.57;2.33;;;25.10;99.90;;;;;;5064951;28;20040;-56
2022/07/05 09:08:47;;;;;;;7.07;1.85;;;25.80;99.90;;;;;;5061617;28;20568;-56
2022/07/05 09:11:14;;;;;;;6.82;1.80;;;26.60;97.60;;;;;;5059200;28;21187;-62
2022/07/05 09:13:42;;;;;;;3.88;1.38;;;27.80;95.10;;;;;;5061467;28;20614;-63
2022/07/05 09:16:09;;;;;;;5.43;2.13;;;28.30;93.70;;;;;;5069969;28;20044;-64
2022/07/05 09:18:41;;;;;;;7.38;2.25;;;28.00;94.50;;;;;;5060973;28;20433;-62
2022/07/05 09:21:21;;;;;;;8.70;2.08;;;27.10;95.30;;;;;;5050987;28;20032;-62
2022/07/05 09:24:05;;;;;;;6.28;1.67;;;26.90;95.70;;;;;;5049069;28;20025;-69
2022/07/05 09:26:38;;;;;;;6.57;1.88;;;26.70;94.50;;;;;;5068241;28;20035;-67
2022/07/05 09:29:22;;;;;;;5.45;1.65;;;25.90;96.90;;;;;;5067146;28;20055;-67
2022/07/05 09:31:49;;;;;;;5.75;1.73;;;25.80;97.60;;;;;;5061005;28;20024;-67
2022/07/05 09:34:19;;;;;;;5.70;1.80;;;25.30;98.30;;;;;;5063183;28;20047;-67
2022/07/05 09:36:56;;;;;;;6.45;2.10;;;25.50;98.20;;;;;;5065807;28;20675;-67
2022/07/05 09:39:34;;;;;;;5.70;2.33;;;25.70;97.80;;;;;;5062829;28;20031;-67
2022/07/05 09:42:20;;;;;;;5.25;2.05;;;24.60;98.80;;;;;;5062148;28;20042;-68
2022/07/05 09:44:54;;;;;;;3.20;1.40;;;24.20;99.50;;;;;;5060910;28;20032;-63
2022/07/05 09:47:26;;;;;;;5.70;1.60;;;24.00;99.50;;;;;;5062672;28;20060;-62
2022/07/05 09:50:03;;;;;;;5.20;1.70;;;24.60;98.80;;;;;;5065930;28;20119;-62
2022/07/05 09:52:41;;;;;;;4.88;1.80;;;25.20;98.50;;;;;;5067305;28;20029;-63
2022/07/05 09:55:08;;;;;;;3.95;1.40;;;26.10;96.50;;;;;;5067126;28;20033;-62
2022/07/05 09:57:39;;;;;;;4.03;1.75;;;27.10;94.00;;;;;;5062993;28;20025;-62
2022/07/05 10:00:17;;;;;;;3.88;1.52;;;26.90;92.20;;;;;;5060610;28;20039;-62
2022/07/05 10:02:48;;;;;;;6.88;1.70;;;27.20;92.40;;;;;;5065838;28;20481;-62
2022/07/05 10:05:21;;;;;;;4.97;1.67;;;27.40;91.40;;;;;;5061525;28;20122;-62
2022/07/05 10:07:51;;;;;;;5.53;1.83;;;26.40;91.40;;;;;;5056564;28;20033;-62
2022/07/05 10:10:20;;;;;;;3.55;1.52;;;25.50;92.90;;;;;;5067989;28;20025;-62
2022/07/05 10:12:47;;;;;;;3.88;1.60;;;25.60;93.30;;;;;;5067188;28;20021;-61
2022/07/05 10:15:19;;;;;;;5.85;1.77;;;25.30;94.00;;;;;;5057229;28;20416;-61
2022/07/05 10:17:54;;;;;;;5.78;1.70;;;25.10;93.60;;;;;;5069312;28;20028;-61
2022/07/05 10:20:53;;;;;;;5.22;1.85;;;24.50;94.60;;;;;;5063677;28;20549;-61
2022/07/05 10:23:19;;;;;;;4.22;1.33;;;25.40;94.50;;;;;;5062362;28;20068;-61
2022/07/05 10:25:48;;;;;;;5.75;1.20;;;26.90;93.00;;;;;;5069043;28;20075;-61
2022/07/05 10:28:16;;;;;;;6.03;1.40;;;28.30;90.00;;;;;;5071869;28;20390;-61
2022/07/05 10:30:45;;;;;;;3.65;1.52;;;27.60;88.90;;;;;;5065943;28;20020;-61
2022/07/05 10:33:14;;;;;;;3.88;1.30;;;27.60;89.00;;;;;;5069165;28;20017;-61
2022/07/05 10:35:43;;;;;;;3.90;1.77;;;27.10;90.50;;;;;;5057417;28;20021;-61
2022/07/05 10:38:11;;;;;;;4.10;1.42;;;26.90;90.20;;;;;;5069166;28;20374;-62
2022/07/05 10:40:37;;;;;;;3.72;1.55;;;26.10;91.00;;;;;;5065907;28;20082;-62
2022/07/05 10:43:04;;;;;;;7.60;1.60;;;25.50;92.60;;;;;;5061470;28;20036;-62
2022/07/05 10:45:31;;;;;;;5.93;1.80;;;25.30;92.80;;;;;;5067598;28;21443;-62
2022/07/05 10:48:27;;;;;;;4.72;1.60;;;25.60;93.10;;;;;;5062154;28;20037;-62
2022/07/05 10:51:00;;;;;;;3.60;1.58;;;25.50;91.70;;;;;;5064200;28;20037;-62
2022/07/05 10:53:27;;;;;;;5.10;1.70;;;25.40;92.00;;;;;;5061660;28;20048;-61
2022/07/05 10:56:00;;;;;;;3.92;1.35;;;25.50;91.40;;;;;;5059822;28;20021;-62
2022/07/05 10:58:32;;;;;;;7.55;2.08;;;25.70;92.10;;;;;;5065765;28;20025;-62
2022/07/05 11:01:20;;;;;;;6.90;1.60;;;25.70;92.50;;;;;;5062594;28;20029;-62
2022/07/05 11:04:06;;;;;;;5.82;1.60;;;25.80;92.50;;;;;;5062012;28;20032;-62
2022/07/05 11:06:39;;;;;;;6.30;1.90;;;25.60;92.30;;;;;;5066303;28;20039;-62
2022/07/05 11:09:08;;;;;;;6.03;2.00;;;25.10;93.30;;;;;;5082237;28;20037;-63
2022/07/05 11:11:40;;;;;;;5.93;1.80;;;25.00;93.00;;;;;;5068339;28;20114;-62
2022/07/05 11:14:25;;;;;;;3.78;1.80;;;25.00;93.60;;;;;;5062360;28;20465;-62
2022/07/05 11:17:11;;;;;;;4.68;2.50;;;24.90;94.20;;;;;;5069724;28;20036;-62
2022/07/05 11:20:05;;;;;;;5.90;2.60;;;24.70;94.80;;;;;;5067495;28;20051;-62
2022/07/05 11:22:32;;;;;;;6.90;2.30;;;24.70;95.30;;;;;;5060486;28;20234;-62
2022/07/05 11:24:59;;;;;;;5.20;2.20;;;25.50;94.60;;;;;;5062544;28;20025;-62
2022/07/05 11:27:24;;;;;;;4.68;2.55;;;26.90;91.20;;;;;;5068371;28;20071;-62
2022/07/05 11:29:54;;;;;;;3.47;2.17;;;27.80;89.00;;;;;;5073044;28;20056;-62
2022/07/05 11:32:23;;;;;;;5.32;2.03;;;27.40;87.40;;;;;;5065573;28;20028;-62
2022/07/05 11:34:52;;;;;;;8.15;2.25;;;26.90;88.00;;;;;;5067958;28;20027;-62
2022/07/05 11:37:18;;;;;;;4.68;1.90;;;27.40;88.90;;;;;;5068252;28;20028;-62
2022/07/05 11:39:46;;;;;;;5.47;2.13;;;28.40;87.30;;;;;;5069009;28;20041;-62
2022/07/05 11:42:20;;;;;;;3.17;1.63;;;29.60;84.90;;;;;;5064697;28;20033;-62
2022/07/05 11:44:50;;;;;;;5.47;2.22;;;29.80;82.00;;;;;;5069537;28;20060;-63
2022/07/05 11:47:17;;;;;;;3.50;2.30;;;29.20;82.40;;;;;;5066664;28;20032;-63
2022/07/05 11:49:53;;;;;;;5.82;2.08;;;29.80;81.10;;;;;;5066768;28;20532;-62
2022/07/05 11:52:25;;;;;;;6.80;2.70;;;29.70;82.00;;;;;;5059688;28;20107;-62
2022/07/05 11:54:51;;;;;;;10.73;2.10;;;29.40;80.70;;;;;;5055662;28;20021;-63
2022/07/05 11:57:19;;;;;;;6.30;2.00;;;28.00;85.40;;;;;;5061784;28;20031;-62
2022/07/05 11:59:45;;;;;;;12.98;1.75;;;26.60;90.00;;;;;;5064840;28;20033;-62
2022/07/05 12:02:10;;;;;;;8.27;1.80;;;26.30;90.90;;;;;;5058709;28;20082;-62
2022/07/05 12:04:36;;;;;;;14.32;2.45;;;25.80;90.70;;;;;;5058968;28;20037;-62
2022/07/05 12:07:02;;;;;;;9.55;2.22;;;25.30;90.90;;;;;;5062090;28;20037;-62
2022/07/05 12:15:07;;;;;;;5.32;1.38;;;25.30;91.20;;;;;;5062662;28;20555;-60
2022/07/05 12:17:37;;;;;;;7.88;1.70;;;26.50;90.30;;;;;;5064540;28;20017;-60
2022/07/05 12:20:08;;;;;;;16.10;3.63;;;27.60;88.10;;;;;;5066977;28;20040;-60
2022/07/05 12:22:44;;;;;;;21.17;2.47;;;27.40;86.80;;;;;;5063210;28;20024;-60
2022/07/05 12:25:15;;;;;;;30.05;3.22;;;27.10;87.70;;;;;;5064902;28;20028;-60
2022/07/05 12:27:42;;;;;;;39.27;4.87;;;27.90;86.00;;;;;;5065734;28;20029;-60
2022/07/05 12:30:10;;;;;;;9.13;2.10;;;28.50;84.70;;;;;;5067977;28;20032;-60
2022/07/05 12:33:02;;;;;;;8.20;1.60;;;29.00;82.60;;;;;;5064659;28;20039;-60
2022/07/05 12:35:36;;;;;;;4.80;1.10;;;29.00;82.50;;;;;;5057840;28;20052;-60
2022/07/05 12:38:07;;;;;;;3.80;1.15;;;28.90;82.50;;;;;;5062119;28;20032;-60
2022/07/05 12:40:34;;;;;;;5.00;1.45;;;27.90;84.10;;;;;;5064776;28;20032;-60
2022/07/05 12:43:02;;;;;;;4.20;1.30;;;27.50;84.70;;;;;;5063984;28;20170;-60
2022/07/05 12:45:28;;;;;;;17.92;2.53;;;28.00;84.50;;;;;;5069640;28;20035;-61
2022/07/05 12:47:55;;;;;;;5.45;1.23;;;28.10;83.80;;;;;;5064186;28;20493;-60
2022/07/05 12:50:25;;;;;;;9.90;1.50;;;28.00;83.60;;;;;;5064261;28;20029;-60
2022/07/05 12:58:59;;;;;;;4.85;1.48;;;29.20;82.40;;;;;;5064869;28;20031;-62
2022/07/05 13:01:26;;;;;;;2.70;1.20;;;29.80;80.50;;;;;;5066738;28;20060;-62
2022/07/05 13:04:21;;;;;;;5.28;1.02;;;29.40;79.40;;;;;;5062441;28;20128;-62